Latest Weather Observations for Perisher Valley

IDN60901

Issued at 6:11 pm EST Thursday 28 May 2015 (issued every 10 minutes, with the page automatically refreshed every 10 minutes)

About weather observations | Map of Canberra area stations | Latest observations for Canberra area | Other Formats
Station Details ID: 071075 Name: PERISHER VALLEY AWS Lat: -36.41 Lon: 148.41 Height: 1738.0 m
Data from the previous 72 hours. | See also: Recent months at Perisher Valley
Date/Time
EST
Tmp

°C
App
Tmp
°C
Dew
Point
°C
Rel
Hum
%
Delta-T

°C
Wind Press
QNH
hPa
Press
MSL
hPa
Rain
since
9 am
mm
Dir
 
Spd
km/h
Gust
km/h
Spd
kts
Gust
kts
28/06:00pm 4.0 -1.4 2.2 88 0.8 W 20 54 11 29 - - 6.0
28/05:30pm 3.9 0.9 2.1 88 0.8 SSW 7 35 4 19 - - 6.0
28/05:00pm 4.1 0.8 2.6 90 0.7 W 9 35 5 19 - - 6.0
28/04:30pm 4.1 1.1 2.3 88 0.8 NW 7 22 4 12 - - 6.0
28/04:00pm 4.2 0.2 2.6 89 0.7 WNW 13 32 7 17 - - 6.0
28/03:30pm 4.3 -0.6 2.3 87 0.9 W 17 41 9 22 - - 6.0
28/03:00pm 4.3 -1.1 2.7 89 0.7 W 20 43 11 23 - - 6.0
28/02:30pm 4.1 0.1 2.9 92 0.5 WNW 13 37 7 20 - - 6.0
28/02:00pm 4.3 -0.5 2.5 88 0.8 WNW 17 44 9 24 - - 6.0
28/01:30pm 4.2 -0.5 3.0 92 0.5 WNW 17 50 9 27 - - 6.0
28/01:00pm 4.0 -0.7 3.0 93 0.5 WNW 17 39 9 21 - - 5.8
28/12:30pm 4.2 1.6 3.0 92 0.5 W 6 24 3 13 - - 4.4
28/12:00pm 4.0 1.4 3.1 94 0.4 NW 6 22 3 12 - - 3.6
28/11:30am 3.8 0.5 2.6 92 0.5 NW 9 26 5 14 - - 2.8
28/11:00am 3.1 -1.9 1.3 88 0.8 W 17 39 9 21 - - 2.2
28/10:30am 3.9 -0.1 2.7 92 0.5 W 13 28 7 15 - - 0.2
28/10:00am 3.7 -0.4 2.5 92 0.5 W 13 32 7 17 - - 0.0
28/09:30am 3.7 -1.5 2.4 91 0.6 W 19 43 10 23 - - 0.0
28/09:00am 3.7 -1.7 2.2 90 0.7 W 20 37 11 20 - - 6.8
28/08:30am 3.7 -0.7 2.5 92 0.5 W 15 32 8 17 - - 6.8
28/08:00am 3.6 0.3 2.4 92 0.5 W 9 37 5 20 - - 6.8
28/07:30am 3.6 0.7 2.7 94 0.4 W 7 20 4 11 - - 6.8
28/07:00am 3.3 -1.0 3.0 98 0.1 WNW 15 28 8 15 - - 6.8
28/06:30am 3.5 -0.8 3.2 98 0.1 W 15 26 8 14 - - 6.8
28/06:00am 3.4 -0.9 3.1 98 0.1 WNW 15 28 8 15 - - 6.8
28/05:30am 3.4 -2.3 3.1 98 0.1 WNW 22 37 12 20 - - 6.8
28/05:00am 3.4 -1.7 2.8 96 0.3 W 19 39 10 21 - - 6.8
28/04:30am 3.8 -1.5 2.8 93 0.5 WNW 20 37 11 20 - - 6.8
28/04:00am 3.8 -1.3 3.2 96 0.3 W 19 35 10 19 - - 6.8
28/03:30am 4.0 -0.7 3.0 93 0.5 W 17 30 9 16 - - 6.8
28/03:00am 4.0 0.4 3.0 93 0.5 WNW 11 33 6 18 - - 6.8
28/02:30am 4.0 1.2 3.0 93 0.5 NNW 7 20 4 11 - - 6.8
28/02:00am 4.1 0.1 2.6 90 0.7 W 13 35 7 19 - - 6.8
28/01:30am 4.0 0.4 3.0 93 0.5 WNW 11 37 6 20 - - 6.8
28/01:00am 4.1 -0.6 2.9 92 0.5 W 17 39 9 21 - - 6.8
28/12:30am 3.9 -2.9 2.9 93 0.5 W 28 54 15 29 - - 6.8
28/12:27am 3.9 -2.9 3.2 95 0.3 W 28 46 15 25 - - 6.8
28/12:00am 3.9 -0.4 3.3 96 0.3 W 15 32 8 17 - - 6.8
 
Date/Time
EST
Tmp

°C
App
Tmp
°C
Dew
Point
°C
Rel
Hum
%
Delta-T

°C
Wind Press
QNH
hPa
Press
MSL
hPa
Rain
since
9 am
mm
Dir
 
Spd
km/h
Gust
km/h
Spd
kts
Gust
kts
27/11:30pm 3.8 -0.5 3.2 96 0.3 W 15 32 8 17 - - 6.8
27/11:00pm 3.8 0.2 3.2 96 0.3 W 11 28 6 15 - - 6.6
27/10:30pm 3.5 -0.4 3.2 98 0.1 WNW 13 24 7 13 - - 6.0
27/10:00pm 3.7 0.6 3.4 98 0.1 W 9 22 5 12 - - 6.0
27/09:30pm 3.7 -0.2 3.4 98 0.1 WNW 13 28 7 15 - - 6.0
27/09:00pm 3.5 -0.5 3.1 97 0.2 W 13 24 7 13 - - 6.0
27/08:30pm 3.5 -0.5 3.1 97 0.2 WSW 13 26 7 14 - - 6.0
27/08:00pm 3.4 -1.3 3.1 98 0.1 WSW 17 41 9 22 - - 6.0
27/07:30pm 3.4 -0.9 3.1 98 0.1 WSW 15 32 8 17 - - 6.0
27/07:00pm 3.5 -0.8 3.2 98 0.1 WSW 15 28 8 15 - - 6.0
27/06:30pm 3.8 0.3 3.7 99 0.0 W 11 26 6 14 - - 5.8
27/06:00pm 3.8 -0.8 3.5 98 0.1 W 17 35 9 19 - - 5.4
27/05:30pm 3.8 -0.5 3.5 98 0.1 W 15 28 8 15 - - 5.4
27/05:00pm 3.5 -0.1 3.2 98 0.1 WNW 11 28 6 15 - - 5.2
27/04:30pm 3.5 -2.5 3.2 98 0.1 W 24 37 13 20 - - 4.2
27/04:00pm 3.4 -1.7 3.1 98 0.1 WNW 19 32 10 17 - - 4.0
27/03:30pm 3.3 0.1 3.0 98 0.1 WNW 9 22 5 12 - - 3.2
27/03:00pm 3.2 -1.5 2.9 98 0.1 WNW 17 35 9 19 - - 3.0
27/02:30pm 3.1 -1.3 2.8 98 0.1 WNW 15 28 8 15 - - 2.8
27/02:00pm 3.0 -1.0 2.6 97 0.2 W 13 30 7 16 - - 2.8
27/01:30pm 3.0 0.6 2.4 96 0.3 NW 4 13 2 7 - - 2.6
27/01:00pm 3.2 0.8 2.3 94 0.4 WNW 4 11 2 6 - - 2.0
27/12:30pm 3.5 0.8 2.6 94 0.4 NW 6 19 3 10 - - 1.0
27/12:00pm 2.9 -1.7 1.3 89 0.7 WNW 15 30 8 16 - - 0.6
27/11:30am 3.8 0.7 1.5 85 1.0 W 7 15 4 8 - - 0.0
27/11:00am 3.9 -0.4 1.3 83 1.1 W 13 20 7 11 - - 0.0
27/10:30am 4.3 -0.3 1.5 82 1.2 W 15 26 8 14 - - 0.0
27/10:00am 4.2 0.6 0.4 76 1.6 W 9 17 5 9 - - 0.0
27/09:30am 3.5 -0.9 -2.2 66 2.3 W 11 20 6 11 - - 0.0
27/09:00am 3.4 -1.2 -3.8 59 2.8 WNW 11 17 6 9 - - 0.0
27/08:30am 4.2 0.4 -1.0 69 2.2 W 9 17 5 9 - - 0.0
27/08:00am 3.8 -0.9 -1.7 67 2.2 W 13 28 7 15 - - 0.0
27/07:30am 3.5 -0.7 -3.7 59 2.8 W 9 17 5 9 - - 0.0
27/07:00am 2.9 -1.9 -6.5 50 3.5 W 11 20 6 11 - - 0.0
27/06:30am 2.4 -3.4 -8.9 43 3.9 W 15 26 8 14 - - 0.0
27/06:00am 2.1 -3.5 -10.7 38 4.2 W 13 20 7 11 - - 0.0
27/05:30am 2.8 -2.9 -12.6 31 4.8 WNW 13 22 7 12 - - 0.0
27/05:00am 2.6 -2.7 -12.8 31 4.8 WNW 11 20 6 11 - - 0.0
27/04:30am 3.2 -2.7 -16.4 22 5.6 W 13 24 7 13 - - 0.0
27/04:00am 3.4 -2.2 -11.7 32 4.9 W 13 19 7 10 - - 0.0
27/03:30am 3.5 -2.0 -9.5 38 4.5 W 13 20 7 11 - - 0.0
27/03:00am 3.6 -2.9 -8.1 42 4.2 W 19 30 10 16 - - 0.0
27/02:30am 3.4 -2.7 -8.0 43 4.1 W 17 30 9 16 - - 0.0
27/02:00am 3.1 -3.1 -8.8 41 4.2 WNW 17 30 9 16 - - 0.0
27/01:30am 3.7 -1.5 -11.1 33 4.9 WNW 11 19 6 10 - - 0.0
27/01:00am 3.8 -1.1 -11.3 32 5.0 WNW 9 15 5 8 - - 0.0
27/12:30am 3.8 -1.7 -9.5 37 4.6 WNW 13 19 7 10 - - 0.0
27/12:00am 1.0 -2.2 -7.0 55 2.8 NNE 2 6 1 3 - - 0.0
 
Date/Time
EST
Tmp

°C
App
Tmp
°C
Dew
Point
°C
Rel
Hum
%
Delta-T

°C
Wind Press
QNH
hPa
Press
MSL
hPa
Rain
since
9 am
mm
Dir
 
Spd
km/h
Gust
km/h
Spd
kts
Gust
kts
26/11:30pm 0.6 -2.6 -7.1 56 2.7 SSW 2 4 1 2 - - 0.0
26/11:00pm 0.6 -2.2 -7.4 55 2.7 CALM 0 2 0 1 - - 0.0
26/10:30pm 0.6 -2.6 -6.7 58 2.6 WSW 2 6 1 3 - - 0.0
26/10:00pm 0.6 -2.4 -5.4 64 2.2 W 2 2 1 1 - - 0.0
26/09:30pm 1.0 -1.7 -6.1 59 2.6 CALM 0 2 0 1 - - 0.0
26/09:00pm 1.5 -1.2 -6.3 56 2.8 CALM 0 2 0 1 - - 0.0
26/08:30pm 1.5 -1.7 -6.8 54 3.0 W 2 4 1 2 - - 0.0
26/08:00pm 2.0 -1.9 -6.6 53 3.1 WSW 6 9 3 5 - - 0.0
26/07:30pm 2.2 -0.9 -6.1 54 3.1 NNW 2 4 1 2 - - 0.0
26/07:00pm 2.4 -0.7 -5.9 54 3.1 N 2 6 1 3 - - 0.0
26/06:30pm 2.5 -1.0 -5.8 54 3.1 NW 4 6 2 3 - - 0.0
26/06:00pm 2.8 -0.2 -5.6 54 3.2 NW 2 2 1 1 - - 0.0
26/05:30pm 2.7 -0.4 -6.2 52 3.3 SW 2 2 1 1 - - 0.0
26/05:00pm 3.2 0.4 -6.5 49 3.6 CALM 0 2 0 1 - - 0.0
26/04:30pm 4.0 0.8 -7.1 44 3.9 S 2 6 1 3 - - 0.0
26/04:00pm 5.0 1.7 -8.1 38 4.6 N 2 6 1 3 - - 0.0
26/03:30pm 6.7 3.0 -8.4 33 5.4 ENE 4 9 2 5 - - 0.0
26/03:00pm 7.8 3.2 -13.1 21 6.7 E 7 13 4 7 - - 0.0
26/02:30pm 7.6 2.5 -15.2 18 7.0 ESE 9 15 5 8 - - 0.0
26/02:00pm 8.6 3.6 -13.7 19 7.2 ESE 9 15 5 8 - - 0.0
26/01:30pm 9.3 4.7 -13.8 18 7.5 ESE 7 11 4 6 - - 0.0
26/01:00pm 9.1 4.0 -15.4 16 7.6 ESE 9 17 5 9 - - 0.0
26/12:30pm 9.4 4.3 -15.9 15 7.8 SE 9 17 5 9 - - 0.0
26/12:00pm 9.7 5.0 -15.6 15 7.9 E 7 15 4 8 - - 0.0
26/11:30am 10.6 6.1 -14.1 16 8.1 E 6 19 3 10 - - 0.0
26/11:00am 10.7 6.5 -15.7 14 8.3 ENE 4 7 2 4 - - 0.0
26/10:30am 9.9 5.3 -17.2 13 8.2 NE 6 13 3 7 - - 0.0
26/10:00am 9.2 4.5 -18.7 12 8.1 ENE 6 9 3 5 - - 0.0
26/09:30am 8.5 4.3 -16.6 15 7.5 NE 4 7 2 4 - - 0.0
26/09:00am 5.9 2.5 -9.9 31 5.4 NE 2 4 1 2 - - 0.0
26/08:30am 3.2 0.4 -7.0 47 3.8 CALM 0 0 0 0 - - 0.0
26/08:00am -0.9 -4.4 -11.6 44 3.1 SSW 2 4 1 2 - - 0.0
26/07:30am -3.3 -6.9 -13.0 47 2.5 SW 2 4 1 2 - - 0.0
26/07:00am -4.7 -8.0 -13.5 50 2.2 CALM 0 4 0 2 - - 0.0
26/06:30am -3.7 -7.4 -13.9 45 2.6 SW 2 7 1 4 - - 0.0
26/06:00am -2.8 -6.9 -14.2 41 3.0 WSW 4 6 2 3 - - 0.0
26/05:30am -3.8 -7.9 -14.8 42 2.7 WSW 4 6 2 3 - - 0.0
26/05:00am -2.6 -6.4 -15.9 35 3.3 SW 2 6 1 3 - - 0.0
26/04:30am -2.9 -6.7 -15.8 36 3.2 WSW 2 6 1 3 - - 0.0
26/04:00am -3.5 -6.7 -12.6 49 2.4 CALM 0 0 0 0 - - 0.0
26/03:30am -3.0 -6.4 -15.6 37 3.1 CALM 0 4 0 2 - - 0.0
26/03:00am -3.3 -7.8 -14.9 40 2.9 SW 6 11 3 6 - - 0.0
26/02:30am -1.9 -7.0 -15.6 34 3.5 SW 9 13 5 7 - - 0.0
26/02:00am -3.4 -7.1 -13.6 45 2.6 WSW 2 7 1 4 - - 0.0
26/01:30am -3.2 -6.9 -14.3 42 2.8 SW 2 6 1 3 - - 0.0
26/01:00am -2.5 -6.6 -14.2 40 3.1 SW 4 9 2 5 - - 0.0
26/12:30am -1.0 -5.8 -16.3 30 4.0 SW 7 9 4 5 - - 0.0
26/12:00am -1.0 -5.5 -15.6 32 3.9 SW 6 7 3 4 - - 0.0
 
Date/Time
EST
Tmp

°C
App
Tmp
°C
Dew
Point
°C
Rel
Hum
%
Delta-T

°C
Wind Press
QNH
hPa
Press
MSL
hPa
Rain
since
9 am
mm
Dir
 
Spd
km/h
Gust
km/h
Spd
kts
Gust
kts
25/11:30pm 0.5 -3.7 -16.3 27 4.5 SW 4 7 2 4 - - 0.0
25/11:00pm 1.7 -2.8 -15.7 26 4.9 WSW 6 9 3 5 - - 0.0
25/10:30pm 1.7 -2.2 -17.2 23 5.1 WSW 2 6 1 3 - - 0.0
25/10:00pm 0.3 -3.3 -12.0 39 3.7 SSW 2 9 1 5 - - 0.0
25/09:30pm -0.6 -3.8 -12.8 39 3.5 CALM 0 2 0 1 - - 0.0
25/09:00pm -0.8 -4.1 -13.0 39 3.5 CALM 0 2 0 1 - - 0.0
25/08:30pm -0.6 -3.8 -12.8 39 3.5 CALM 0 2 0 1 - - 0.0
25/08:00pm -0.7 -4.3 -11.7 43 3.2 SW 2 6 1 3 - - 0.0
25/07:30pm -0.2 -3.7 -10.7 45 3.2 WSW 2 6 1 3 - - 0.0
25/07:00pm 0.2 -3.0 -12.4 38 3.7 CALM 0 2 0 1 - - 0.0
25/06:30pm 0.0 -4.0 -12.3 39 3.6 WSW 4 7 2 4 - - 0.0

Latest Capital City Observations: Canberra | Sydney | Melbourne | Brisbane | Adelaide | Perth | Hobart | Darwin

Other Formats:

Comma delimited format used in spreadsheet applications
http://www.bom.gov.au/fwo/IDN60903/IDN60903.94915.axf

JavaScript Object Notation format (JSON) in row-major order
http://www.bom.gov.au/fwo/IDN60903/IDN60903.94915.json